This is the latest recevied weather packets stored in our database for station/object N2PUI. If no packets are shown the sender has not sent any weather packets the latest 10 day(s).
| Time | Temp. | Humidity | Pressure | Rain* | Wind** | Luminosity | Snow |
|---|---|---|---|---|---|---|---|
| 1777343765 | 15° C | 50% | 1021.9 hPa | 0 mm | - | 0 W/m² | - |
| 1777343462 | 15° C | 49% | 1021.9 hPa | 0 mm | - | 0 W/m² | - |
| 1777343160 | 14.44° C | 50% | 1021.7 hPa | 0 mm | - | 0 W/m² | - |
| 1777342857 | 14.44° C | 50% | 1022.1 hPa | 0 mm | - | 0 W/m² | - |
| 1777342554 | 14.44° C | 51% | 1022.2 hPa | 0 mm | - | 0 W/m² | - |
| 1777342250 | 14.44° C | 51% | 1022.2 hPa | 0 mm | - | 0 W/m² | - |
| 1777341947 | 13.33° C | 53% | 1022.2 hPa | 0 mm | - | 0 W/m² | - |
| 1777341339 | 12.22° C | 58% | 1022 hPa | 0 mm | - | 0 W/m² | - |
| 1777340733 | 11.67° C | 60% | 1021.9 hPa | 0 mm | - | 0 W/m² | - |
| 1777340432 | 12.22° C | 60% | 1022 hPa | 0 mm | - | 0 W/m² | - |
| 1777340129 | 12.22° C | 59% | 1022 hPa | 0 mm | - | 0 W/m² | - |
| 1777339826 | 12.78° C | 58% | 1022 hPa | 0 mm | - | 0 W/m² | - |
| 1777339524 | 12.78° C | 57% | 1022.1 hPa | 0 mm | - | 0 W/m² | - |
| 1777339221 | 13.33° C | 55% | 1022 hPa | 0 mm | - | 0 W/m² | - |
| 1777338919 | 13.89° C | 53% | 1022 hPa | 0 mm | - | 0 W/m² | - |
| 1777338313 | 15.56° C | 47% | 1021.5 hPa | 0 mm | - | 0 W/m² | - |
| 1777338009 | 15.56° C | 47% | 1021.8 hPa | 0 mm | - | 0 W/m² | - |
| 1777335285 | 17.78° C | 41% | 1021.5 hPa | 0 mm | - | 0 W/m² | - |
| 1777334983 | 18.33° C | 38% | 1021.7 hPa | 0 mm | - | 0 W/m² | - |
| 1777334680 | 18.89° C | 36% | 1021.4 hPa | 0 mm | - | 0 W/m² | - |
* Rain latest hour (hover to see other rain measurements)
** Current wind speed in m/s (hover to see current wind gust speed)